Time;durP1;ratioP1;P1;durP2;ratioP2;P2;SDS_P1;SDS_P2;PMS_P1;PMS_P2;Temp;Humidity;BMP_temperature;BMP_pressure;BME280_temperature;BME280_humidity;BME280_pressure;Samples;Min_cycle;Max_cycle;Signal;HPM_P1;HPM_P2
2022/06/26 00:02:07;;;;;;;22.57;20.77;;;22.00;99.90;;;;;;5072277;28;20483;-50
2022/06/26 00:04:33;;;;;;;21.43;19.93;;;22.20;99.90;;;;;;5073129;28;20525;-56
2022/06/26 00:07:00;;;;;;;22.37;20.73;;;22.20;99.90;;;;;;5075847;28;20797;-56
2022/06/26 00:09:27;;;;;;;23.07;21.43;;;22.30;99.90;;;;;;5075761;28;20450;-56
2022/06/26 00:11:55;;;;;;;22.37;20.77;;;22.30;99.90;;;;;;5075959;28;20591;-55
2022/06/26 00:14:21;;;;;;;21.27;19.67;;;22.40;99.90;;;;;;5075852;28;20443;-56
2022/06/26 00:16:48;;;;;;;19.60;18.30;;;22.40;99.90;;;;;;5075844;28;20443;-55
2022/06/26 00:19:15;;;;;;;20.53;19.10;;;22.50;99.90;;;;;;5075701;28;20443;-56
2022/06/26 00:21:41;;;;;;;20.80;19.10;;;22.60;99.90;;;;;;5075585;28;20501;-56
2022/06/26 00:24:08;;;;;;;23.30;21.23;;;22.70;99.90;;;;;;5075738;28;20454;-56
2022/06/26 00:26:34;;;;;;;23.13;21.47;;;22.60;99.90;;;;;;5075709;28;20455;-56
2022/06/26 00:29:02;;;;;;;22.10;20.60;;;22.50;99.90;;;;;;5075410;28;20968;-53
2022/06/26 00:31:28;;;;;;;22.60;21.00;;;22.40;99.90;;;;;;5075420;28;20502;-56
2022/06/26 00:33:55;;;;;;;20.70;19.20;;;22.30;99.90;;;;;;5075387;28;20454;-53
2022/06/26 00:36:21;;;;;;;20.53;19.07;;;22.40;99.90;;;;;;5075270;28;20459;-53
2022/06/26 00:38:48;;;;;;;20.57;18.87;;;22.50;99.90;;;;;;5075148;28;20824;-56
2022/06/26 00:41:14;;;;;;;21.47;20.00;;;22.60;99.90;;;;;;5075357;28;20490;-55
2022/06/26 00:43:41;;;;;;;23.07;21.47;;;22.40;99.90;;;;;;5075130;28;20455;-56
2022/06/26 00:46:09;;;;;;;23.73;21.90;;;22.20;99.90;;;;;;5075038;28;20950;-56
2022/06/26 00:48:35;;;;;;;24.60;22.73;;;21.90;99.90;;;;;;5075046;28;20457;-55
2022/06/26 00:51:02;;;;;;;25.37;23.50;;;21.60;99.90;;;;;;5074984;28;20973;-54
2022/06/26 00:53:28;;;;;;;22.80;21.20;;;21.40;99.90;;;;;;5075132;28;20550;-52
2022/06/26 00:55:55;;;;;;;24.23;22.13;;;21.60;99.90;;;;;;5075088;28;20443;-54
2022/06/26 00:58:22;;;;;;;24.33;22.23;;;21.70;99.90;;;;;;5074745;28;20481;-55
2022/06/26 01:00:48;;;;;;;23.77;22.07;;;21.80;99.90;;;;;;5074899;28;20517;-56
2022/06/26 01:03:16;;;;;;;25.33;23.40;;;21.70;99.90;;;;;;5074874;28;20543;-56
2022/06/26 01:05:43;;;;;;;24.80;22.80;;;21.50;99.90;;;;;;5074736;28;20961;-55
2022/06/26 01:08:10;;;;;;;27.00;25.00;;;21.40;99.90;;;;;;5074868;28;20443;-55
2022/06/26 01:10:38;;;;;;;25.80;23.90;;;21.20;99.90;;;;;;5074821;28;20447;-53
2022/06/26 01:13:06;;;;;;;25.57;23.60;;;21.10;99.90;;;;;;5074706;28;20449;-56
2022/06/26 01:15:33;;;;;;;27.47;25.20;;;21.20;99.90;;;;;;5074552;28;20944;-55
2022/06/26 01:18:00;;;;;;;23.33;21.40;;;21.30;99.90;;;;;;5074416;28;20868;-56
2022/06/26 01:20:28;;;;;;;23.43;21.30;;;21.50;99.90;;;;;;5074668;28;20443;-53
2022/06/26 01:23:00;;;;;;;25.23;23.43;;;21.60;99.90;;;;;;5074579;28;20480;-55
2022/06/26 01:25:38;;;;;;;23.23;21.53;;;21.70;99.90;;;;;;5074414;28;20443;-56
2022/06/26 01:28:04;;;;;;;23.90;22.13;;;21.70;99.90;;;;;;5074420;28;20451;-55
2022/06/26 01:30:31;;;;;;;21.57;20.07;;;21.80;99.90;;;;;;5074219;28;20448;-53
2022/06/26 01:32:58;;;;;;;24.57;22.80;;;21.90;99.90;;;;;;5074436;28;20463;-55
2022/06/26 01:35:24;;;;;;;22.97;21.47;;;22.00;99.90;;;;;;5074304;28;20452;-53
2022/06/26 01:37:51;;;;;;;23.90;22.00;;;22.00;99.90;;;;;;5074244;28;20460;-55
2022/06/26 01:40:19;;;;;;;24.33;22.43;;;22.00;99.90;;;;;;5074193;28;20865;-56
2022/06/26 01:42:45;;;;;;;23.57;21.87;;;22.00;99.90;;;;;;5073953;28;20482;-56
2022/06/26 01:45:12;;;;;;;22.30;20.60;;;22.10;99.90;;;;;;5073872;28;20960;-55
2022/06/26 01:47:38;;;;;;;23.20;21.50;;;22.10;99.90;;;;;;5074080;28;20538;-56
2022/06/26 01:50:06;;;;;;;24.97;23.07;;;22.10;99.90;;;;;;5073856;28;20964;-53
2022/06/26 01:52:32;;;;;;;23.90;22.10;;;22.10;99.90;;;;;;5073933;28;20543;-56
2022/06/26 01:54:59;;;;;;;23.83;21.93;;;22.10;99.90;;;;;;5073838;28;20443;-55
2022/06/26 01:57:26;;;;;;;23.90;22.20;;;21.70;99.90;;;;;;5073504;28;20559;-55
2022/06/26 01:59:53;;;;;;;23.53;21.77;;;21.50;99.90;;;;;;5073588;28;20439;-54
2022/06/26 02:02:19;;;;;;;22.10;20.50;;;21.60;99.90;;;;;;5073740;28;20489;-54
2022/06/26 02:04:46;;;;;;;24.03;22.30;;;21.70;99.90;;;;;;5073735;28;20443;-54
2022/06/26 02:07:12;;;;;;;24.13;22.27;;;21.60;99.90;;;;;;5073490;28;21013;-55
2022/06/26 02:15:10;;;;;;;25.30;23.40;;;20.90;99.90;;;;;;5073456;28;20434;-53
2022/06/26 02:17:36;;;;;;;21.33;19.83;;;20.80;99.90;;;;;;5073501;28;20447;-55
2022/06/26 02:20:03;;;;;;;20.63;19.17;;;20.90;99.90;;;;;;5073428;28;20448;-54
2022/06/26 02:22:29;;;;;;;22.70;20.97;;;21.00;99.90;;;;;;5073159;28;20482;-58
2022/06/26 02:24:56;;;;;;;23.60;21.77;;;21.10;99.90;;;;;;5073261;28;20454;-56
2022/06/26 02:27:22;;;;;;;21.17;19.67;;;21.10;99.90;;;;;;5073009;28;20542;-55
2022/06/26 02:29:49;;;;;;;20.40;18.90;;;21.20;99.90;;;;;;5073435;28;20543;-55
2022/06/26 02:32:17;;;;;;;21.83;20.23;;;21.20;99.90;;;;;;5073270;28;20883;-56
2022/06/26 02:34:43;;;;;;;20.10;18.50;;;21.20;99.90;;;;;;5073232;28;20806;-54
2022/06/26 02:37:10;;;;;;;22.13;20.63;;;21.30;99.90;;;;;;5073087;28;20443;-56
2022/06/26 02:39:36;;;;;;;23.63;21.93;;;21.10;99.90;;;;;;5073128;28;20877;-52
2022/06/26 02:42:03;;;;;;;23.60;21.80;;;20.70;99.90;;;;;;5073187;28;20893;-56
2022/06/26 02:44:30;;;;;;;24.77;22.97;;;20.60;99.90;;;;;;5073158;28;20444;-56
2022/06/26 02:46:57;;;;;;;25.67;23.80;;;20.60;99.90;;;;;;5073099;28;20486;-56
2022/06/26 02:49:25;;;;;;;25.63;23.73;;;20.50;99.90;;;;;;5073013;28;20538;-53
2022/06/26 02:51:51;;;;;;;24.40;22.50;;;20.50;99.90;;;;;;5073393;28;20459;-55
2022/06/26 02:54:18;;;;;;;24.50;22.70;;;20.50;99.90;;;;;;5073073;28;20530;-56
2022/06/26 02:56:44;;;;;;;26.60;24.57;;;20.60;99.90;;;;;;5072864;28;20826;-56
2022/06/26 02:59:11;;;;;;;27.77;25.60;;;20.70;99.90;;;;;;5073112;28;20625;-56
2022/06/26 03:01:37;;;;;;;26.17;24.17;;;20.60;99.90;;;;;;5072811;28;20471;-55
2022/06/26 03:04:05;;;;;;;24.87;23.07;;;20.50;99.90;;;;;;5072862;28;20538;-55
2022/06/26 03:06:33;;;;;;;27.33;25.23;;;20.50;99.90;;;;;;5072746;28;20481;-55
2022/06/26 03:08:59;;;;;;;28.10;26.00;;;20.30;99.90;;;;;;5072902;28;20885;-56
2022/06/26 03:11:25;;;;;;;25.60;23.50;;;20.20;99.90;;;;;;5072959;28;20486;-56
2022/06/26 03:13:53;;;;;;;27.17;25.07;;;20.20;99.90;;;;;;5072865;28;20454;-56
2022/06/26 03:16:19;;;;;;;25.23;23.30;;;20.40;99.90;;;;;;5072714;28;20538;-54
2022/06/26 03:18:46;;;;;;;26.87;24.73;;;20.60;99.90;;;;;;5072720;28;20505;-55
2022/06/26 03:21:12;;;;;;;25.37;23.57;;;20.70;99.90;;;;;;5072584;28;20542;-56
2022/06/26 03:26:24;;;;;;;27.23;25.20;;;20.80;99.90;;;;;;5072745;28;20442;-55
2022/06/26 03:28:50;;;;;;;28.23;26.07;;;20.70;99.90;;;;;;5072687;28;20447;-56
2022/06/26 03:31:17;;;;;;;26.90;24.90;;;20.70;99.90;;;;;;5072488;28;21013;-55
2022/06/26 03:33:43;;;;;;;28.97;26.50;;;20.70;99.90;;;;;;5072531;28;20547;-54
2022/06/26 03:36:10;;;;;;;27.20;25.30;;;20.70;99.90;;;;;;5072754;28;20538;-56
2022/06/26 03:38:36;;;;;;;28.20;26.10;;;20.70;99.90;;;;;;5072646;28;20814;-55
2022/06/26 03:41:04;;;;;;;28.50;26.30;;;20.80;99.90;;;;;;5075759;28;21052;-55
2022/06/26 03:43:31;;;;;;;29.10;26.90;;;20.80;99.90;;;;;;5076195;28;20566;-53
2022/06/26 03:45:58;;;;;;;29.37;27.07;;;20.80;99.90;;;;;;5076206;28;20458;-55
2022/06/26 03:48:25;;;;;;;29.37;27.17;;;20.80;99.90;;;;;;5076466;28;20550;-54
2022/06/26 03:50:52;;;;;;;29.67;27.57;;;20.80;99.90;;;;;;5076364;28;20458;-56
2022/06/26 03:53:19;;;;;;;28.97;26.87;;;20.70;99.90;;;;;;5076277;28;20814;-55
2022/06/26 03:55:46;;;;;;;30.10;27.50;;;20.60;99.90;;;;;;5076194;28;20516;-54
2022/06/26 03:58:14;;;;;;;28.83;26.70;;;20.60;99.90;;;;;;5075922;28;20588;-51
2022/06/26 04:00:40;;;;;;;29.27;27.07;;;20.70;99.90;;;;;;5075966;28;20538;-54
2022/06/26 04:03:08;;;;;;;29.10;26.83;;;20.70;99.90;;;;;;5076069;28;20483;-54
2022/06/26 04:05:35;;;;;;;28.90;26.73;;;20.80;99.90;;;;;;5076201;28;20484;-56
2022/06/26 04:08:02;;;;;;;31.43;28.80;;;20.80;99.90;;;;;;5076000;28;20451;-55
2022/06/26 04:10:28;;;;;;;28.53;26.33;;;20.80;99.90;;;;;;5075878;28;20449;-56
2022/06/26 04:12:59;;;;;;;27.13;25.03;;;20.90;99.90;;;;;;5075770;28;20885;-53
2022/06/26 04:15:28;;;;;;;29.03;26.83;;;21.10;99.90;;;;;;5076022;28;20454;-54
2022/06/26 04:17:54;;;;;;;30.20;27.90;;;21.30;99.90;;;;;;5075602;28;20933;-55
2022/06/26 04:20:21;;;;;;;28.47;26.40;;;21.10;99.90;;;;;;5076076;28;21003;-54
2022/06/26 04:22:56;;;;;;;31.27;28.77;;;21.10;99.90;;;;;;5075555;28;20479;-55
2022/06/26 04:25:23;;;;;;;31.00;28.60;;;21.10;99.90;;;;;;5075588;28;20809;-52
2022/06/26 04:27:49;;;;;;;30.50;28.00;;;21.10;99.90;;;;;;5075472;28;20450;-53
2022/06/26 04:30:16;;;;;;;31.53;29.30;;;21.10;99.90;;;;;;5075621;28;20550;-52
2022/06/26 04:32:44;;;;;;;29.13;26.93;;;21.20;99.90;;;;;;5075510;28;20461;-53
2022/06/26 04:35:11;;;;;;;30.90;28.43;;;21.40;99.90;;;;;;5075475;28;20817;-54
2022/06/26 04:37:38;;;;;;;28.43;26.47;;;21.50;99.90;;;;;;5075360;28;20447;-56
2022/06/26 04:40:07;;;;;;;27.67;25.57;;;21.60;99.90;;;;;;5075298;28;20451;-55
2022/06/26 04:42:34;;;;;;;28.87;26.23;;;21.60;99.90;;;;;;5075364;28;20554;-56
2022/06/26 04:45:00;;;;;;;28.67;26.47;;;21.60;99.90;;;;;;5075363;28;20451;-56
2022/06/26 04:47:27;;;;;;;25.20;23.40;;;21.70;99.90;;;;;;5075247;28;20555;-52
2022/06/26 04:49:55;;;;;;;25.90;23.90;;;21.80;99.90;;;;;;5075093;28;20446;-53
2022/06/26 04:52:22;;;;;;;26.67;24.77;;;22.00;99.90;;;;;;5075020;28;20470;-55
2022/06/26 04:54:48;;;;;;;25.50;23.53;;;22.10;99.90;;;;;;5075073;28;20532;-53
2022/06/26 04:57:15;;;;;;;25.70;23.80;;;22.10;99.90;;;;;;5075243;28;20562;-53
2022/06/26 04:59:43;;;;;;;25.77;23.77;;;22.20;99.90;;;;;;5075195;28;20880;-50
2022/06/26 05:02:10;;;;;;;23.47;21.77;;;22.30;99.90;;;;;;5075026;28;20467;-52
2022/06/26 05:04:37;;;;;;;23.00;21.40;;;22.40;99.90;;;;;;5074996;28;20451;-50
2022/06/26 05:07:05;;;;;;;23.30;21.50;;;22.40;99.90;;;;;;5074857;28;20458;-54
2022/06/26 05:09:32;;;;;;;22.80;21.10;;;22.60;99.90;;;;;;5074736;28;20534;-51
2022/06/26 05:11:59;;;;;;;22.80;21.20;;;22.60;99.90;;;;;;5074797;28;20447;-51
2022/06/26 05:14:26;;;;;;;21.90;20.40;;;22.70;99.90;;;;;;5074787;28;20454;-54
2022/06/26 05:16:53;;;;;;;20.90;19.00;;;22.80;99.90;;;;;;5074689;28;20451;-54
2022/06/26 05:19:19;;;;;;;19.63;18.13;;;23.10;99.90;;;;;;5074563;28;20443;-54
2022/06/26 05:21:46;;;;;;;19.50;18.00;;;23.50;99.90;;;;;;5074486;28;20448;-55
2022/06/26 05:24:14;;;;;;;18.27;17.07;;;23.80;99.90;;;;;;5074510;28;20471;-55
2022/06/26 05:26:40;;;;;;;16.87;15.67;;;24.00;99.90;;;;;;5074310;28;20487;-55
2022/06/26 05:29:07;;;;;;;14.83;13.80;;;24.40;99.90;;;;;;5074513;28;21041;-55
2022/06/26 05:31:33;;;;;;;14.97;13.87;;;24.80;99.90;;;;;;5074383;28;20453;-53
2022/06/26 05:34:00;;;;;;;15.60;14.50;;;25.10;99.90;;;;;;5074319;28;21065;-55
2022/06/26 05:36:26;;;;;;;13.83;12.87;;;25.40;99.90;;;;;;5074069;28;20454;-56
2022/06/26 05:38:53;;;;;;;13.13;12.20;;;25.70;99.90;;;;;;5074307;28;20455;-55
2022/06/26 05:41:21;;;;;;;14.30;13.40;;;26.00;99.90;;;;;;5074192;28;20543;-54
2022/06/26 05:43:47;;;;;;;12.43;11.67;;;26.00;99.90;;;;;;5074048;28;20479;-56
2022/06/26 05:46:14;;;;;;;11.70;10.90;;;26.00;99.90;;;;;;5074018;28;20543;-56
2022/06/26 05:48:41;;;;;;;10.77;10.07;;;26.00;99.90;;;;;;5074012;28;20968;-56
2022/06/26 05:51:07;;;;;;;10.90;10.10;;;26.10;99.90;;;;;;5073852;28;20458;-55
2022/06/26 05:53:34;;;;;;;9.90;9.30;;;26.20;99.90;;;;;;5074045;28;20809;-56
2022/06/26 05:56:00;;;;;;;9.63;9.13;;;26.40;99.90;;;;;;5074017;28;20890;-56
2022/06/26 05:58:28;;;;;;;11.07;10.30;;;26.50;99.90;;;;;;5073613;28;20570;-56
2022/06/26 06:00:55;;;;;;;11.17;10.47;;;26.50;99.90;;;;;;5073735;28;20487;-56
2022/06/26 06:03:21;;;;;;;9.93;9.00;;;26.40;99.90;;;;;;5072898;28;20486;-58
2022/06/26 06:05:48;;;;;;;10.97;10.27;;;26.30;99.90;;;;;;5073535;28;20447;-56
2022/06/26 06:08:14;;;;;;;9.03;8.40;;;26.40;99.90;;;;;;5073776;28;20893;-56
2022/06/26 06:10:41;;;;;;;7.93;7.43;;;26.40;99.90;;;;;;5073583;28;20447;-54
2022/06/26 06:13:07;;;;;;;9.47;8.77;;;26.20;99.90;;;;;;5073618;28;20795;-56
2022/06/26 06:15:35;;;;;;;9.00;8.50;;;26.00;99.90;;;;;;5073505;28;20448;-55
2022/06/26 06:18:02;;;;;;;8.77;8.27;;;26.30;99.90;;;;;;5073250;28;20519;-53
2022/06/26 06:20:28;;;;;;;9.00;8.50;;;26.40;99.90;;;;;;5073544;28;20453;-56
2022/06/26 06:23:00;;;;;;;8.67;8.17;;;26.50;99.90;;;;;;5073572;28;20471;-55
2022/06/26 06:25:27;;;;;;;8.27;7.70;;;26.60;99.90;;;;;;5073392;28;20444;-56
2022/06/26 06:27:53;;;;;;;7.83;7.33;;;26.40;99.90;;;;;;5073310;28;20471;-55
2022/06/26 06:30:20;;;;;;;8.13;7.63;;;26.40;99.90;;;;;;5073245;28;20873;-56
2022/06/26 06:32:49;;;;;;;8.30;7.60;;;26.40;99.90;;;;;;5073154;28;20542;-56
2022/06/26 06:35:16;;;;;;;7.40;7.00;;;26.50;99.90;;;;;;5073147;28;20954;-56
2022/06/26 06:37:43;;;;;;;7.20;6.80;;;26.60;99.90;;;;;;5073252;28;20443;-57
2022/06/26 06:40:11;;;;;;;7.77;7.37;;;26.70;99.90;;;;;;5073219;28;20801;-56
2022/06/26 06:42:38;;;;;;;7.07;6.70;;;26.70;99.90;;;;;;5071856;28;20475;-56
2022/06/26 06:45:06;;;;;;;7.33;6.93;;;26.70;99.90;;;;;;5073051;28;20455;-56
2022/06/26 06:47:32;;;;;;;7.87;7.37;;;26.40;99.90;;;;;;5072898;28;20443;-56
2022/06/26 06:50:00;;;;;;;6.70;6.33;;;26.50;99.90;;;;;;5073232;28;20455;-55
2022/06/26 06:52:27;;;;;;;7.13;6.73;;;26.50;99.90;;;;;;5073082;28;20448;-56
2022/06/26 06:54:54;;;;;;;5.93;5.63;;;26.60;99.90;;;;;;5072930;28;20807;-56
2022/06/26 06:57:20;;;;;;;7.00;6.60;;;26.40;99.90;;;;;;5072821;28;20558;-52
2022/06/26 06:59:46;;;;;;;7.07;6.67;;;26.60;99.90;;;;;;5072838;28;20803;-56
2022/06/26 07:02:13;;;;;;;6.70;6.20;;;26.60;99.90;;;;;;5073038;28;20530;-53
2022/06/26 07:04:39;;;;;;;6.80;6.40;;;26.60;99.90;;;;;;5072872;28;20570;-56
2022/06/26 07:07:07;;;;;;;6.60;6.20;;;26.50;99.90;;;;;;5072890;28;20814;-56
2022/06/26 07:09:34;;;;;;;7.17;6.67;;;26.60;99.90;;;;;;5072966;28;20447;-56
2022/06/26 07:12:00;;;;;;;6.50;6.10;;;26.80;99.90;;;;;;5072918;28;20542;-55
2022/06/26 07:14:27;;;;;;;6.80;6.30;;;27.10;99.90;;;;;;5075316;28;20546;-56
2022/06/26 07:16:53;;;;;;;6.40;6.00;;;27.30;99.90;;;;;;5077145;28;20447;-53
2022/06/26 07:19:20;;;;;;;5.30;5.00;;;27.50;99.90;;;;;;5076972;28;20526;-56
2022/06/26 07:21:47;;;;;;;6.27;5.97;;;27.40;99.90;;;;;;5076849;28;20454;-56
2022/06/26 07:24:15;;;;;;;5.67;5.37;;;27.50;99.90;;;;;;5076559;28;20489;-56
2022/06/26 07:26:42;;;;;;;6.20;5.90;;;27.60;99.90;;;;;;5076557;28;20541;-56
2022/06/26 07:29:09;;;;;;;5.93;5.43;;;27.80;99.90;;;;;;5076502;28;20542;-56
2022/06/26 07:31:36;;;;;;;6.43;6.03;;;27.80;99.90;;;;;;5076754;28;20538;-57
2022/06/26 07:34:16;;;;;;;6.50;6.10;;;27.80;99.90;;;;;;5076669;28;20473;-56
2022/06/26 07:36:43;;;;;;;6.53;6.13;;;27.60;99.90;;;;;;5076485;28;20508;-55
2022/06/26 07:39:10;;;;;;;6.57;6.27;;;27.50;99.90;;;;;;5076378;28;20449;-57
2022/06/26 07:41:38;;;;;;;6.10;5.70;;;27.60;99.90;;;;;;5076487;28;20530;-56
2022/06/26 07:44:06;;;;;;;7.27;6.80;;;27.80;99.90;;;;;;5076342;28;20483;-57
2022/06/26 07:46:32;;;;;;;6.27;5.93;;;27.90;99.90;;;;;;5076363;28;20805;-56
2022/06/26 07:48:59;;;;;;;6.43;5.93;;;28.00;99.90;;;;;;5076370;28;20453;-57
2022/06/26 07:51:25;;;;;;;5.83;5.53;;;28.20;99.90;;;;;;5076215;28;20484;-56
2022/06/26 07:53:52;;;;;;;8.20;6.60;;;28.20;99.90;;;;;;5076073;28;20537;-56
2022/06/26 07:56:19;;;;;;;6.87;6.40;;;28.20;99.90;;;;;;5075863;28;20538;-56
2022/06/26 07:58:46;;;;;;;6.53;5.93;;;28.10;99.90;;;;;;5076257;28;20451;-57
2022/06/26 08:01:13;;;;;;;6.93;6.47;;;28.10;99.90;;;;;;5076167;28;20534;-56
2022/06/26 08:03:40;;;;;;;6.93;6.17;;;28.30;99.90;;;;;;5075794;28;21084;-55
2022/06/26 08:06:06;;;;;;;6.50;5.80;;;28.60;99.90;;;;;;5075979;28;20454;-57
2022/06/26 08:08:33;;;;;;;6.10;5.80;;;28.50;99.90;;;;;;5075828;28;20477;-56
2022/06/26 08:10:59;;;;;;;7.00;6.60;;;28.30;99.90;;;;;;5076055;28;20448;-56
2022/06/26 08:13:26;;;;;;;6.63;6.30;;;28.10;99.90;;;;;;5075984;28;20532;-55
2022/06/26 08:15:53;;;;;;;6.80;6.40;;;28.10;99.90;;;;;;5075728;28;20854;-56
2022/06/26 08:18:20;;;;;;;6.80;6.30;;;28.30;99.90;;;;;;5075602;28;20443;-56
2022/06/26 08:20:46;;;;;;;6.97;6.57;;;28.30;99.90;;;;;;5075616;28;20534;-52
2022/06/26 08:23:13;;;;;;;6.97;6.53;;;28.20;99.90;;;;;;5075411;28;20978;-56
2022/06/26 08:25:39;;;;;;;6.60;6.30;;;28.10;99.90;;;;;;5074949;28;20538;-54
2022/06/26 08:28:06;;;;;;;7.20;6.80;;;28.20;99.90;;;;;;5075668;28;20447;-54
2022/06/26 08:30:33;;;;;;;7.17;6.77;;;28.60;99.90;;;;;;5075503;28;20454;-55
2022/06/26 08:33:01;;;;;;;7.03;6.63;;;28.80;99.90;;;;;;5075388;28;20448;-54
2022/06/26 08:35:28;;;;;;;7.30;6.90;;;28.80;99.90;;;;;;5075281;28;20447;-54
2022/06/26 08:37:55;;;;;;;8.33;7.73;;;28.50;99.90;;;;;;5075513;28;20534;-54
2022/06/26 08:40:21;;;;;;;7.20;6.70;;;28.30;99.90;;;;;;5075362;28;20457;-53
2022/06/26 08:42:51;;;;;;;6.90;6.40;;;28.40;99.90;;;;;;5075139;28;21038;-56
2022/06/26 08:45:19;;;;;;;5.87;5.57;;;28.60;99.90;;;;;;5074949;28;20483;-56
2022/06/26 08:47:50;;;;;;;6.57;6.07;;;28.90;99.90;;;;;;5075156;28;20446;-55
2022/06/26 08:50:19;;;;;;;6.70;6.30;;;28.90;99.90;;;;;;5075040;28;20482;-53
2022/06/26 08:52:46;;;;;;;7.13;6.73;;;29.00;99.90;;;;;;5075255;28;20854;-55
2022/06/26 08:55:14;;;;;;;7.00;6.50;;;29.30;99.90;;;;;;5075074;28;20453;-55
2022/06/26 08:57:41;;;;;;;5.23;5.03;;;29.50;99.90;;;;;;5074851;28;20563;-56
2022/06/26 09:00:09;;;;;;;6.03;5.63;;;29.50;99.90;;;;;;5074863;28;20448;-53
2022/06/26 09:02:35;;;;;;;6.50;6.07;;;28.90;99.90;;;;;;5074700;28;20534;-54
2022/06/26 09:05:02;;;;;;;7.03;6.53;;;28.90;99.90;;;;;;5074872;28;20486;-55
2022/06/26 09:07:30;;;;;;;7.97;7.27;;;28.90;99.90;;;;;;5074899;28;20542;-55
2022/06/26 09:09:57;;;;;;;6.43;6.00;;;28.60;99.90;;;;;;5074833;28;20456;-54
2022/06/26 09:12:35;;;;;;;7.10;6.70;;;28.60;99.90;;;;;;5074756;28;20526;-54
2022/06/26 09:15:01;;;;;;;6.27;5.87;;;28.80;99.90;;;;;;5074506;28;20578;-55
2022/06/26 09:17:28;;;;;;;6.83;6.43;;;29.30;99.90;;;;;;5074503;28;20552;-53
2022/06/26 09:19:56;;;;;;;6.33;5.90;;;29.30;99.90;;;;;;5074641;28;20454;-54
2022/06/26 09:22:23;;;;;;;6.40;6.00;;;29.00;99.90;;;;;;5074571;28;20534;-51
2022/06/26 09:24:55;;;;;;;4.60;4.40;;;29.10;99.90;;;;;;5074358;28;20838;-57
2022/06/26 09:27:22;;;;;;;5.00;4.80;;;29.40;99.90;;;;;;5074403;28;20447;-56
2022/06/26 09:29:51;;;;;;;4.97;4.67;;;29.50;99.90;;;;;;5074211;28;20470;-54
2022/06/26 09:32:19;;;;;;;5.63;5.23;;;29.80;99.90;;;;;;5074387;28;20806;-55
2022/06/26 09:34:48;;;;;;;5.90;5.50;;;29.70;99.90;;;;;;5074339;28;20497;-55
2022/06/26 09:37:15;;;;;;;5.20;4.90;;;29.70;99.90;;;;;;5073168;28;20952;-55
2022/06/26 09:39:42;;;;;;;5.57;5.17;;;29.70;99.90;;;;;;5074213;28;20447;-55
2022/06/26 09:42:18;;;;;;;4.93;4.40;;;29.70;99.90;;;;;;5073984;28;20447;-53
2022/06/26 09:44:45;;;;;;;5.87;5.47;;;29.10;99.90;;;;;;5074007;28;20483;-56
2022/06/26 09:47:27;;;;;;;4.60;4.40;;;29.10;99.90;;;;;;5073869;28;20956;-55
2022/06/26 09:49:55;;;;;;;5.70;5.43;;;29.60;99.90;;;;;;5074005;28;20877;-55
2022/06/26 09:52:23;;;;;;;5.00;4.70;;;29.90;99.90;;;;;;5073896;28;20440;-56
2022/06/26 09:54:50;;;;;;;4.70;4.40;;;30.00;99.90;;;;;;5073753;28;20517;-56
2022/06/26 09:57:19;;;;;;;4.87;4.60;;;30.30;99.90;;;;;;5073732;28;20479;-55
2022/06/26 09:59:45;;;;;;;5.53;5.13;;;30.50;99.90;;;;;;5073848;28;20450;-54
2022/06/26 10:07:47;;;;;;;5.43;5.07;;;30.70;99.90;;;;;;5073572;28;20447;-56
2022/06/26 10:10:15;;;;;;;5.50;5.17;;;30.70;99.90;;;;;;5073694;28;20444;-57
2022/06/26 10:12:43;;;;;;;5.40;5.10;;;30.50;99.90;;;;;;5073579;28;20521;-56
2022/06/26 10:15:12;;;;;;;5.20;5.00;;;30.30;99.90;;;;;;5073521;28;20534;-56
2022/06/26 10:17:55;;;;;;;6.80;6.40;;;30.20;99.90;;;;;;5073303;28;20543;-55
2022/06/26 10:20:23;;;;;;;5.37;5.17;;;30.20;99.90;;;;;;5073593;28;20463;-54
2022/06/26 10:22:49;;;;;;;5.23;4.83;;;30.50;99.90;;;;;;5073366;28;20439;-55
2022/06/26 10:25:23;;;;;;;4.80;4.60;;;30.80;99.90;;;;;;5073269;28;20568;-55
2022/06/26 10:27:52;;;;;;;5.40;5.10;;;31.00;99.90;;;;;;5073334;28;20902;-55
2022/06/26 10:30:20;;;;;;;6.03;5.73;;;31.20;99.90;;;;;;5073113;28;20877;-56
2022/06/26 10:33:05;;;;;;;5.37;5.17;;;31.10;99.90;;;;;;5073372;28;20443;-56
2022/06/26 10:35:38;;;;;;;6.00;5.70;;;30.60;99.90;;;;;;5073263;28;20451;-56
2022/06/26 10:38:18;;;;;;;5.97;5.67;;;30.40;99.90;;;;;;5073067;28;20448;-55
2022/06/26 10:43:43;;;;;;;5.43;5.13;;;30.40;99.90;;;;;;5072944;28;20661;-56
2022/06/26 10:46:12;;;;;;;5.20;4.90;;;30.60;99.90;;;;;;5073142;28;20809;-57
2022/06/26 10:48:38;;;;;;;5.50;5.20;;;30.60;99.90;;;;;;5072793;28;20647;-56
2022/06/26 10:51:05;;;;;;;6.33;5.77;;;30.60;99.90;;;;;;5072911;28;20538;-55
2022/06/26 10:53:32;;;;;;;4.00;3.80;;;31.00;99.90;;;;;;5073512;28;20530;-56
2022/06/26 10:56:01;;;;;;;4.83;4.53;;;31.40;99.90;;;;;;5073235;28;20461;-56
2022/06/26 10:58:31;;;;;;;4.70;4.40;;;31.00;99.90;;;;;;5072674;28;20482;-56
2022/06/26 11:01:00;;;;;;;4.17;3.97;;;31.00;99.90;;;;;;5072766;28;20431;-55
2022/06/26 11:03:28;;;;;;;4.80;4.60;;;31.40;99.90;;;;;;5072729;28;20497;-57
2022/06/26 11:05:57;;;;;;;5.60;5.13;;;31.70;99.90;;;;;;5072868;28;20478;-58
2022/06/26 11:08:30;;;;;;;4.00;3.80;;;31.70;99.90;;;;;;5072926;28;20474;-55
2022/06/26 11:11:00;;;;;;;4.50;4.30;;;31.70;99.90;;;;;;5072756;28;20811;-55
2022/06/26 11:13:26;;;;;;;5.00;4.70;;;31.90;99.90;;;;;;5072793;28;20455;-55
2022/06/26 11:15:54;;;;;;;5.00;4.70;;;31.70;99.90;;;;;;5072570;28;20546;-56
2022/06/26 11:18:21;;;;;;;5.20;5.00;;;31.70;99.90;;;;;;5072651;28;20451;-56
2022/06/26 11:20:50;;;;;;;5.17;4.97;;;31.90;99.90;;;;;;5072614;28;20532;-56
2022/06/26 11:23:22;;;;;;;5.27;5.03;;;31.90;99.90;;;;;;5072718;28;20443;-55
2022/06/26 11:25:51;;;;;;;5.20;4.87;;;32.20;99.90;;;;;;5072331;28;20522;-56
2022/06/26 11:28:18;;;;;;;5.20;4.87;;;32.40;99.90;;;;;;5072570;28;20882;-55
2022/06/26 11:30:46;;;;;;;4.87;4.67;;;32.10;99.90;;;;;;5072546;28;20451;-56
2022/06/26 11:33:23;;;;;;;5.20;4.90;;;32.20;99.90;;;;;;5072366;28;21033;-56
2022/06/26 11:35:49;;;;;;;5.20;4.90;;;32.10;99.90;;;;;;5072710;28;20447;-56
2022/06/26 11:38:18;;;;;;;4.67;4.47;;;31.80;99.90;;;;;;5072534;28;20483;-57
2022/06/26 11:40:46;;;;;;;4.87;4.50;;;32.10;99.90;;;;;;5072464;28;20443;-56
2022/06/26 11:43:14;;;;;;;4.40;4.20;;;32.00;99.90;;;;;;5072417;28;20454;-55
2022/06/26 11:45:40;;;;;;;4.73;4.53;;;32.00;99.90;;;;;;5072509;28;20579;-56
2022/06/26 11:48:12;;;;;;;4.70;4.50;;;31.90;99.90;;;;;;5072552;28;20448;-55
2022/06/26 11:50:40;;;;;;;4.90;4.60;;;31.80;99.90;;;;;;5072496;28;20462;-56
2022/06/26 11:53:07;;;;;;;4.70;4.50;;;32.00;99.90;;;;;;5072453;28;20455;-56
2022/06/26 11:55:35;;;;;;;4.67;4.47;;;32.20;99.90;;;;;;5072168;28;20494;-55
2022/06/26 11:58:03;;;;;;;5.00;4.67;;;32.40;99.90;;;;;;5072179;28;20918;-56
2022/06/26 12:00:30;;;;;;;5.13;4.83;;;32.60;99.90;;;;;;5073159;28;20455;-55
2022/06/26 12:02:57;;;;;;;4.60;4.33;;;32.50;99.90;;;;;;5075998;28;20447;-56
2022/06/26 12:05:25;;;;;;;5.00;4.80;;;32.70;99.90;;;;;;5075831;28;20555;-56
2022/06/26 12:07:54;;;;;;;4.50;4.30;;;32.60;99.90;;;;;;5075814;28;20448;-56
2022/06/26 12:10:29;;;;;;;5.17;4.87;;;32.40;99.90;;;;;;5075761;28;20546;-56
2022/06/26 12:12:56;;;;;;;4.63;4.40;;;32.80;99.90;;;;;;5075880;28;20533;-56
2022/06/26 12:15:24;;;;;;;4.80;4.60;;;33.20;99.90;;;;;;5075750;28;20557;-56
2022/06/26 12:17:56;;;;;;;4.60;4.30;;;33.50;99.90;;;;;;5075552;28;20538;-56
2022/06/26 12:20:23;;;;;;;5.00;4.80;;;33.20;99.90;;;;;;5075594;28;20539;-55
2022/06/26 12:22:52;;;;;;;3.70;3.50;;;32.70;99.90;;;;;;5075410;28;20534;-55
2022/06/26 12:25:30;;;;;;;3.90;3.70;;;32.00;99.90;;;;;;5075566;28;20924;-56
2022/06/26 12:27:57;;;;;;;4.57;4.17;;;32.30;99.90;;;;;;5075629;28;20882;-56
2022/06/26 12:30:27;;;;;;;4.07;3.70;;;32.60;99.90;;;;;;5075640;28;20447;-56
2022/06/26 12:32:53;;;;;;;4.10;3.80;;;32.40;99.00;;;;;;5075431;28;20833;-56
2022/06/26 12:35:20;;;;;;;4.33;3.37;;;32.10;98.40;;;;;;5075260;28;20456;-56
2022/06/26 12:37:47;;;;;;;4.00;3.80;;;32.20;99.50;;;;;;5075508;28;20502;-56
2022/06/26 12:40:14;;;;;;;4.70;4.40;;;32.50;99.90;;;;;;5075394;28;20447;-56
2022/06/26 12:42:42;;;;;;;5.17;4.87;;;33.00;99.90;;;;;;5075377;28;20480;-56
2022/06/26 12:45:09;;;;;;;5.53;5.13;;;33.30;98.80;;;;;;5075110;28;20816;-56
2022/06/26 12:47:36;;;;;;;4.30;4.10;;;33.40;98.70;;;;;;5075019;28;20453;-56
2022/06/26 12:50:04;;;;;;;5.27;5.07;;;33.50;98.20;;;;;;5075290;28;20512;-55
2022/06/26 12:52:32;;;;;;;5.23;5.03;;;33.20;99.00;;;;;;5075106;28;20671;-55
2022/06/26 12:54:58;;;;;;;5.30;5.00;;;33.30;99.80;;;;;;5075160;28;20447;-56
2022/06/26 12:57:25;;;;;;;5.40;5.10;;;33.50;99.10;;;;;;5074812;28;20574;-55